サンパウロ/グアルーリョス の空港の天気 - METARとTAF

グアルーリョス国際空港 (サンパウロ) ( SBGR / GRU ) - ブラジル サンパウロ州サンパウロ市
飛行場実況気象(Metar)
観測時間11/27 06:00 BRT (11/27 09:00 UTC)
風向・風速東 4m/s
視程10km以上
天気現象
全天の8割程度の雲 雲底高度 400m
気温16℃
湿度100%
気圧1015hPa
METARSBGR 270900Z 08007KT 9999 BKN013 16/16 Q1015
過去の天気等 Google飛行場航空写真 Wunderground天気予報

過去48時間のMETAR

飛行場予報(TAF)
発表時間: 11/26 23:20 BRT (11/27 02:20 UTC)
予報対象時間: 27日3時 BRT ~ 28日9時 BRT
風向・風速東南東 3m/s
視程10km以上
全天の4割程度の雲 雲底高度 760m
27日11時 BRT ~ 27日13時 BRT に徐々に
風向・風速南南東 5m/s
全天の8割程度の雲 雲底高度 910m
少しの塔状積雲 雲底高度 1220m
27日15時 BRT ~ 27日21時 BRT に一時的に
視程8000m
天気現象雷雨
全天の8割程度の雲 雲底高度 610m
少しの積乱雲 雲底高度 1220m
27日22時 BRT ~ 27日24時 BRT に徐々に
風向・風速東 3m/s
全天の8割程度の雲 雲底高度 370m
28日5時 BRT から 確率 30% で
風向・風速東 2m/s
視程3000m
天気現象霧雨 もや
全天の8割程度の雲 雲底高度 270m
TAF SBGR 270220Z 2706/2812 12005KT 9999 SCT025 TN14/2709Z TX24/2717Z
BECMG 2714/2716 15010KT BKN030 FEW040TCU
TEMPO 2718/2724 8000 TSRA BKN020 FEW040CB
BECMG 2801/2803 10005KT BKN012
PROB30 2808/2811 09004KT 3000 DZ BR BKN009 RMK PHG